createdAt,value
2018-05-26T00:01:24.111Z,25.25
2018-05-26T00:03:50.233Z,25.23
2018-05-26T00:06:16.337Z,25.23
2018-05-26T00:08:42.629Z,25.22
2018-05-26T00:11:08.721Z,25.22
2018-05-26T00:13:34.813Z,25.19
2018-05-26T00:16:01.274Z,25.21
2018-05-26T00:18:27.370Z,25.20
2018-05-26T00:20:53.594Z,25.19
2018-05-26T00:23:19.699Z,25.17
2018-05-26T00:25:45.810Z,25.15
2018-05-26T00:28:11.932Z,25.16
2018-05-26T00:30:38.041Z,25.15
2018-05-26T00:33:04.868Z,25.16
2018-05-26T00:35:31.306Z,25.14
2018-05-26T00:37:57.414Z,25.13
2018-05-26T00:40:23.861Z,25.15
2018-05-26T00:42:49.975Z,25.13
2018-05-26T00:45:16.095Z,25.12
2018-05-26T00:47:42.260Z,25.11
2018-05-26T00:50:08.365Z,25.10
2018-05-26T00:52:34.798Z,25.10
2018-05-26T00:55:01.033Z,25.09
2018-05-26T00:57:27.129Z,25.08
2018-05-26T00:59:53.236Z,25.07
2018-05-26T01:02:19.405Z,25.08
2018-05-26T01:04:45.560Z,25.09
2018-05-26T01:07:11.957Z,25.07
2018-05-26T01:09:38.045Z,25.06
2018-05-26T01:12:04.290Z,25.05
2018-05-26T01:14:30.645Z,25.05
2018-05-26T01:16:56.746Z,25.02
2018-05-26T01:19:23.305Z,24.96
2018-05-26T01:21:49.411Z,24.93
2018-05-26T01:24:15.770Z,24.92
2018-05-26T01:26:41.889Z,24.93
2018-05-26T01:29:08.320Z,24.91
2018-05-26T01:31:34.915Z,24.89
2018-05-26T01:34:01.018Z,24.88
2018-05-26T01:36:27.113Z,24.87
2018-05-26T01:38:53.365Z,24.86
2018-05-26T01:41:19.460Z,24.84
2018-05-26T01:43:45.563Z,24.84
2018-05-26T01:46:11.733Z,24.83
2018-05-26T01:48:37.832Z,24.83
2018-05-26T01:51:03.937Z,24.83
2018-05-26T01:53:30.397Z,24.83
2018-05-26T01:55:56.829Z,24.82
2018-05-26T01:58:22.949Z,24.81
2018-05-26T02:00:49.052Z,24.81
2018-05-26T02:03:15.342Z,24.79
2018-05-26T02:05:41.446Z,24.77
2018-05-26T02:08:07.876Z,24.79
2018-05-26T02:10:34.005Z,24.78
2018-05-26T02:13:00.104Z,24.75
2018-05-26T02:15:26.288Z,24.76
2018-05-26T02:17:52.395Z,24.76
2018-05-26T02:20:18.537Z,24.77
2018-05-26T02:22:44.933Z,24.74
2018-05-26T02:25:11.078Z,24.73
2018-05-26T02:27:37.181Z,24.72
2018-05-26T02:30:03.315Z,24.74
2018-05-26T02:32:29.437Z,24.74
2018-05-26T02:34:56.011Z,24.76
2018-05-26T02:37:22.113Z,24.78
2018-05-26T02:39:48.222Z,24.77
2018-05-26T02:42:14.337Z,24.74
2018-05-26T02:44:40.433Z,24.72
2018-05-26T02:47:06.568Z,24.69
2018-05-26T02:49:32.947Z,24.68
2018-05-26T02:51:59.052Z,24.67
2018-05-26T02:54:25.486Z,24.68
2018-05-26T02:56:51.591Z,24.66
2018-05-26T02:59:18.181Z,24.66
2018-05-26T03:01:44.312Z,24.64
2018-05-26T03:04:10.303Z,24.65
2018-05-26T03:06:42.396Z,24.65
2018-05-26T03:09:14.527Z,24.63
2018-05-26T03:11:46.644Z,24.61
2018-05-26T03:14:18.935Z,24.62
2018-05-26T03:16:47.952Z,24.58
2018-05-26T03:19:14.394Z,24.56
2018-05-26T03:21:40.566Z,24.57
2018-05-26T03:24:06.664Z,24.56
2018-05-26T03:26:32.769Z,24.56
2018-05-26T03:28:58.890Z,24.56
2018-05-26T03:31:24.991Z,24.56
2018-05-26T03:33:51.129Z,24.53
2018-05-26T03:36:17.275Z,24.52
2018-05-26T03:38:43.805Z,24.53
2018-05-26T03:41:10.969Z,24.50
2018-05-26T03:43:37.078Z,24.50
2018-05-26T03:46:03.213Z,24.50
2018-05-26T03:48:29.316Z,24.48
2018-05-26T03:50:55.905Z,24.46
2018-05-26T03:53:22.005Z,24.47
2018-05-26T03:56:00.920Z,24.47
2018-05-26T03:58:39.241Z,24.46
2018-05-26T04:01:05.670Z,24.45
2018-05-26T04:03:31.808Z,24.46
2018-05-26T04:05:57.975Z,24.46
2018-05-26T04:08:24.110Z,24.46
2018-05-26T04:10:50.201Z,24.48
2018-05-26T04:13:16.302Z,24.48
2018-05-26T04:15:42.563Z,24.54
2018-05-26T04:18:08.694Z,24.58
2018-05-26T04:20:35.080Z,24.56
2018-05-26T04:23:01.229Z,24.58
2018-05-26T04:25:27.383Z,24.59
2018-05-26T04:27:53.864Z,24.58
2018-05-26T04:30:20.102Z,24.60
2018-05-26T04:32:46.202Z,24.60
2018-05-26T04:35:12.307Z,24.61
2018-05-26T04:37:38.449Z,24.58
2018-05-26T04:40:04.556Z,24.59
2018-05-26T04:42:30.814Z,24.60
2018-05-26T04:44:56.922Z,24.59
2018-05-26T04:47:23.282Z,24.59
2018-05-26T04:49:49.848Z,24.60
2018-05-26T04:52:15.947Z,24.58
2018-05-26T04:54:42.375Z,24.60
2018-05-26T04:57:08.493Z,24.61
2018-05-26T04:59:34.589Z,24.61
2018-05-26T05:02:01.364Z,24.62
2018-05-26T05:04:27.462Z,24.62
2018-05-26T05:06:53.566Z,24.63
2018-05-26T05:09:19.949Z,24.62
2018-05-26T05:11:46.046Z,24.64
2018-05-26T05:14:12.222Z,24.64
2018-05-26T05:16:38.327Z,24.63
2018-05-26T05:19:04.762Z,24.64
2018-05-26T05:21:30.890Z,24.65
2018-05-26T05:23:56.996Z,24.64
2018-05-26T05:26:23.577Z,24.63
2018-05-26T05:28:49.711Z,24.62
2018-05-26T05:31:16.237Z,24.63
2018-05-26T05:33:42.334Z,24.66
2018-05-26T05:36:08.437Z,24.66
2018-05-26T05:38:34.559Z,24.65
2018-05-26T05:41:00.667Z,24.66
2018-05-26T05:43:26.821Z,24.66
2018-05-26T05:45:52.922Z,24.66
2018-05-26T05:48:19.022Z,24.65
2018-05-26T05:50:45.159Z,24.64
2018-05-26T05:53:11.254Z,24.66
2018-05-26T05:55:37.370Z,24.67
2018-05-26T05:58:04.105Z,24.67
2018-05-26T06:00:30.536Z,24.69
2018-05-26T06:02:56.865Z,24.71
2018-05-26T06:05:23.081Z,24.71
2018-05-26T06:07:49.219Z,24.69
2018-05-26T06:10:15.354Z,24.70
2018-05-26T06:12:41.518Z,24.71
2018-05-26T06:15:07.952Z,24.73
2018-05-26T06:17:34.125Z,24.74
2018-05-26T06:20:00.244Z,24.77
2018-05-26T06:22:26.334Z,24.78
2018-05-26T06:24:52.453Z,24.78
2018-05-26T06:27:18.546Z,24.80
2018-05-26T06:29:44.669Z,24.82
2018-05-26T06:32:10.756Z,24.82
2018-05-26T06:34:37.217Z,24.83
2018-05-26T06:37:03.396Z,24.84
2018-05-26T06:39:29.493Z,24.86
2018-05-26T06:41:55.745Z,24.89
2018-05-26T06:44:28.930Z,24.89
2018-05-26T06:46:55.050Z,24.91
2018-05-26T06:49:21.149Z,24.91
2018-05-26T06:51:47.573Z,24.92
2018-05-26T06:54:13.682Z,24.92
2018-05-26T06:56:39.810Z,24.94
2018-05-26T06:59:05.918Z,24.96
2018-05-26T07:01:32.385Z,24.98
2018-05-26T07:03:58.870Z,24.99
2018-05-26T07:06:24.980Z,25.02
2018-05-26T07:08:51.179Z,25.03
2018-05-26T07:11:17.268Z,25.03
2018-05-26T07:13:43.865Z,25.03
2018-05-26T07:16:10.263Z,25.02
2018-05-26T07:18:36.356Z,25.03
2018-05-26T07:21:02.481Z,25.05
2018-05-26T07:23:28.577Z,25.07
2018-05-26T07:25:54.705Z,25.10
2018-05-26T07:28:20.901Z,25.12
2018-05-26T07:30:47.023Z,25.12
2018-05-26T07:33:13.228Z,25.13
2018-05-26T07:35:39.683Z,25.15
2018-05-26T07:38:05.865Z,25.17
2018-05-26T07:40:32.246Z,25.19
2018-05-26T07:42:58.431Z,25.22
2018-05-26T07:45:24.534Z,25.23
2018-05-26T07:47:50.632Z,25.25
2018-05-26T07:50:16.944Z,25.25
2018-05-26T07:52:43.036Z,25.26
2018-05-26T07:55:09.154Z,25.28
2018-05-26T07:57:35.304Z,25.29
2018-05-26T08:00:01.407Z,25.31
2018-05-26T08:02:27.531Z,25.32
2018-05-26T08:04:53.662Z,25.34
2018-05-26T08:07:19.783Z,25.36
2018-05-26T08:09:45.904Z,25.39
2018-05-26T08:12:12.913Z,25.40
2018-05-26T08:14:39.158Z,25.42
2018-05-26T08:17:05.275Z,25.46
2018-05-26T08:19:31.387Z,25.46
2018-05-26T08:21:57.538Z,25.49
2018-05-26T08:24:23.642Z,25.51
2018-05-26T08:26:49.773Z,25.53
2018-05-26T08:29:15.899Z,25.56
2018-05-26T08:31:42.035Z,25.57
2018-05-26T08:34:08.130Z,25.58
2018-05-26T08:36:34.257Z,25.60
2018-05-26T08:39:00.381Z,25.61
2018-05-26T08:41:26.476Z,25.63
2018-05-26T08:43:52.614Z,25.64
2018-05-26T08:46:18.709Z,25.67
2018-05-26T08:48:45.610Z,25.68
2018-05-26T08:51:11.741Z,25.70
2018-05-26T08:53:37.849Z,25.71
2018-05-26T08:56:03.979Z,25.73
2018-05-26T08:58:30.121Z,25.75
2018-05-26T09:00:56.216Z,25.77
2018-05-26T09:03:22.338Z,25.78
2018-05-26T09:05:48.593Z,25.80
2018-05-26T09:08:14.694Z,25.80
2018-05-26T09:10:40.793Z,25.82
2018-05-26T09:13:06.912Z,25.83
2018-05-26T09:15:33.294Z,25.83
2018-05-26T09:17:59.429Z,25.83
2018-05-26T09:20:25.538Z,25.83
2018-05-26T09:22:51.669Z,25.82
2018-05-26T09:25:17.802Z,25.83
2018-05-26T09:27:44.058Z,25.84
2018-05-26T09:30:10.198Z,25.86
2018-05-26T09:32:36.328Z,25.87
2018-05-26T09:35:02.478Z,25.88
2018-05-26T09:37:28.582Z,25.89
2018-05-26T09:39:54.961Z,25.89
2018-05-26T09:42:21.084Z,25.92
2018-05-26T09:44:47.177Z,25.93
2018-05-26T09:47:13.294Z,25.94
2018-05-26T09:49:39.535Z,25.95
2018-05-26T09:52:05.893Z,25.96
2018-05-26T09:54:31.997Z,25.97
2018-05-26T09:56:58.131Z,25.99
2018-05-26T09:59:24.714Z,26.00
2018-05-26T10:01:51.084Z,26.02
2018-05-26T10:04:17.467Z,26.02
2018-05-26T10:06:43.611Z,26.03
2018-05-26T10:09:09.766Z,26.05
2018-05-26T10:11:35.901Z,26.06
2018-05-26T10:14:02.019Z,26.08
2018-05-26T10:16:28.254Z,26.10
2018-05-26T10:18:54.354Z,26.11
2018-05-26T10:21:20.468Z,26.12
2018-05-26T10:23:46.961Z,26.14
2018-05-26T10:26:13.096Z,26.16
2018-05-26T10:28:39.238Z,26.18
2018-05-26T10:31:05.373Z,26.21
2018-05-26T10:33:31.469Z,26.23
2018-05-26T10:35:57.615Z,26.25
2018-05-26T10:38:23.723Z,26.27
2018-05-26T10:40:50.200Z,26.27
2018-05-26T10:43:16.336Z,26.30
2018-05-26T10:45:48.446Z,26.32
2018-05-26T10:48:14.573Z,26.34
2018-05-26T10:50:47.709Z,26.36
2018-05-26T10:53:13.860Z,26.38
2018-05-26T10:55:39.982Z,26.40
2018-05-26T10:58:06.146Z,26.41
2018-05-26T11:00:32.571Z,26.44
2018-05-26T11:02:58.667Z,26.46
2018-05-26T11:05:24.821Z,26.48
2018-05-26T11:07:50.925Z,26.49
2018-05-26T11:10:17.052Z,26.51
2018-05-26T11:12:43.157Z,26.53
2018-05-26T11:15:09.404Z,26.54
2018-05-26T11:17:35.546Z,26.56
2018-05-26T11:20:01.748Z,26.57
2018-05-26T11:22:27.852Z,26.59
2018-05-26T11:24:54.044Z,26.61
2018-05-26T11:27:20.108Z,26.64
2018-05-26T11:29:46.313Z,26.66
2018-05-26T11:32:12.391Z,26.68
2018-05-26T11:34:38.520Z,26.70
2018-05-26T11:37:05.055Z,26.72
2018-05-26T11:39:31.250Z,26.74
2018-05-26T11:41:57.357Z,26.76
2018-05-26T11:44:23.487Z,26.78
2018-05-26T11:46:49.643Z,26.81
2018-05-26T11:49:15.892Z,26.84
2018-05-26T11:51:42.333Z,26.86
2018-05-26T11:54:08.770Z,26.88
2018-05-26T11:56:35.223Z,26.90
2018-05-26T11:59:01.331Z,26.93
2018-05-26T12:01:27.429Z,26.97
2018-05-26T12:03:53.560Z,26.99
2018-05-26T12:06:20.014Z,27.02
2018-05-26T12:08:46.180Z,27.04
2018-05-26T12:11:12.327Z,27.06
2018-05-26T12:13:38.554Z,27.10
2018-05-26T12:16:04.653Z,27.14
2018-05-26T12:18:31.050Z,27.18
2018-05-26T12:20:57.597Z,27.20
2018-05-26T12:23:23.706Z,27.23
2018-05-26T12:25:49.800Z,27.25
2018-05-26T12:28:15.924Z,27.28
2018-05-26T12:30:42.074Z,27.31
2018-05-26T12:33:08.464Z,27.33
2018-05-26T12:35:34.558Z,27.36
2018-05-26T12:38:00.674Z,27.38
2018-05-26T12:40:26.817Z,27.40
2018-05-26T12:42:52.922Z,27.43
2018-05-26T12:45:19.104Z,27.45
2018-05-26T12:47:45.225Z,27.49
2018-05-26T12:50:11.420Z,27.52
2018-05-26T12:52:37.529Z,27.54
2018-05-26T12:55:03.889Z,27.57
2018-05-26T12:57:30.289Z,27.59
2018-05-26T12:59:56.411Z,27.61
2018-05-26T13:02:22.644Z,27.64
2018-05-26T13:04:49.077Z,27.67
2018-05-26T13:07:15.169Z,27.69
2018-05-26T13:09:41.293Z,27.73
2018-05-26T13:12:07.487Z,27.76
2018-05-26T13:14:33.582Z,27.80
2018-05-26T13:16:59.706Z,27.84
2018-05-26T13:19:25.793Z,27.86
2018-05-26T13:21:51.931Z,27.89
2018-05-26T13:24:18.032Z,27.92
2018-05-26T13:26:44.173Z,27.95
2018-05-26T13:29:10.341Z,27.96
2018-05-26T13:31:36.438Z,27.98
2018-05-26T13:34:02.589Z,28.00
2018-05-26T13:36:28.689Z,28.04
2018-05-26T13:38:54.784Z,28.08
2018-05-26T13:41:21.055Z,28.13
2018-05-26T13:43:47.496Z,28.15
2018-05-26T13:46:13.928Z,28.17
2018-05-26T13:48:40.112Z,28.19
2018-05-26T13:51:06.500Z,28.21
2018-05-26T13:53:32.700Z,28.26
2018-05-26T13:55:59.149Z,28.28
2018-05-26T13:58:25.254Z,28.31
2018-05-26T14:00:51.516Z,28.33
2018-05-26T14:03:17.655Z,28.36
2018-05-26T14:05:43.754Z,28.40
2018-05-26T14:08:10.338Z,28.43
2018-05-26T14:10:36.447Z,28.47
2018-05-26T14:13:02.549Z,28.51
2018-05-26T14:15:29.384Z,28.56
2018-05-26T14:17:55.507Z,28.62
2018-05-26T14:20:21.617Z,28.72
2018-05-26T14:22:47.759Z,28.83
2018-05-26T14:25:14.194Z,28.81
2018-05-26T14:27:40.340Z,28.75
2018-05-26T14:30:06.750Z,28.73
2018-05-26T14:32:32.844Z,28.64
2018-05-26T14:34:59.416Z,28.61
2018-05-26T14:37:25.523Z,28.55
2018-05-26T14:39:51.630Z,28.51
2018-05-26T14:42:18.403Z,28.86
2018-05-26T14:44:44.837Z,28.71
2018-05-26T14:47:10.926Z,28.61
2018-05-26T14:49:37.073Z,28.55
2018-05-26T14:52:03.195Z,28.66
2018-05-26T14:54:29.345Z,29.92
2018-05-26T14:56:55.776Z,31.09
2018-05-26T14:59:21.915Z,29.91
2018-05-26T15:01:48.023Z,29.16
2018-05-26T15:04:14.177Z,28.76
2018-05-26T15:06:40.273Z,28.54
2018-05-26T15:09:06.371Z,28.39
2018-05-26T15:11:32.868Z,28.29
2018-05-26T15:13:58.982Z,28.21
2018-05-26T15:16:25.104Z,28.16
2018-05-26T15:18:51.345Z,28.12
2018-05-26T15:21:17.433Z,28.10
2018-05-26T15:23:43.622Z,28.12
2018-05-26T15:26:10.099Z,28.16
2018-05-26T15:28:36.219Z,28.27
2018-05-26T15:31:02.323Z,28.36
2018-05-26T15:33:28.490Z,28.41
2018-05-26T15:35:54.593Z,28.43
2018-05-26T15:38:20.729Z,28.39
2018-05-26T15:40:47.265Z,28.41
2018-05-26T15:43:13.697Z,28.51
2018-05-26T15:45:39.794Z,28.48
2018-05-26T15:48:05.989Z,28.41
2018-05-26T15:50:32.105Z,28.36
2018-05-26T15:52:58.209Z,28.35
2018-05-26T15:55:24.740Z,28.35
2018-05-26T15:57:50.837Z,28.38
2018-05-26T16:00:16.931Z,28.45
2018-05-26T16:02:43.089Z,28.52
2018-05-26T16:05:09.190Z,28.59
2018-05-26T16:07:35.316Z,28.85
2018-05-26T16:10:01.425Z,28.83
2018-05-26T16:12:27.562Z,28.90
2018-05-26T16:14:53.750Z,28.90
2018-05-26T16:17:20.173Z,29.03
2018-05-26T16:19:46.288Z,29.04
2018-05-26T16:22:12.417Z,29.05
2018-05-26T16:24:38.892Z,29.13
2018-05-26T16:27:04.999Z,29.20
2018-05-26T16:29:31.138Z,29.15
2018-05-26T16:31:57.262Z,28.99
2018-05-26T16:34:23.444Z,28.86
2018-05-26T16:36:49.541Z,28.99
2018-05-26T16:39:15.646Z,28.99
2018-05-26T16:41:41.884Z,29.24
2018-05-26T16:44:07.986Z,29.43
2018-05-26T16:46:34.096Z,29.88
2018-05-26T16:49:00.270Z,30.40
2018-05-26T16:51:26.377Z,30.88
2018-05-26T16:53:52.486Z,31.67
2018-05-26T16:56:19.005Z,32.01
2018-05-26T16:58:45.156Z,32.09
2018-05-26T17:01:11.665Z,31.88
2018-05-26T17:03:37.838Z,31.62
2018-05-26T17:06:03.936Z,31.31
2018-05-26T17:08:30.071Z,31.20
2018-05-26T17:10:56.178Z,31.10
2018-05-26T17:13:22.750Z,31.04
2018-05-26T17:15:49.265Z,31.02
2018-05-26T17:18:15.668Z,30.96
2018-05-26T17:20:41.849Z,30.86
2018-05-26T17:23:07.961Z,30.77
2018-05-26T17:25:34.222Z,30.67
2018-05-26T17:28:00.342Z,30.58
2018-05-26T17:30:26.709Z,30.50
2018-05-26T17:32:52.843Z,30.46
2018-05-26T17:35:18.954Z,30.43
2018-05-26T17:37:45.090Z,30.42
2018-05-26T17:40:11.518Z,30.41
2018-05-26T17:42:37.674Z,30.40
2018-05-26T17:45:03.806Z,30.37
2018-05-26T17:47:29.904Z,30.35
2018-05-26T17:49:56.141Z,30.34
2018-05-26T17:52:22.250Z,30.32
2018-05-26T17:54:48.686Z,30.31
2018-05-26T17:57:14.833Z,30.28
2018-05-26T17:59:40.937Z,30.26
2018-05-26T18:02:07.040Z,30.24
2018-05-26T18:04:33.184Z,30.21
2018-05-26T18:06:59.446Z,30.17
2018-05-26T18:09:25.625Z,30.15
2018-05-26T18:11:51.724Z,30.10
2018-05-26T18:14:17.826Z,30.08
2018-05-26T18:16:44.074Z,30.05
2018-05-26T18:19:10.182Z,30.05
2018-05-26T18:21:36.286Z,30.02
2018-05-26T18:24:02.427Z,29.98
2018-05-26T18:26:28.531Z,29.95
2018-05-26T18:28:54.963Z,29.90
2018-05-26T18:31:21.118Z,29.87
2018-05-26T18:33:47.512Z,29.83
2018-05-26T18:36:13.954Z,29.81
2018-05-26T18:38:40.119Z,29.78
2018-05-26T18:41:06.505Z,29.74
2018-05-26T18:43:32.642Z,29.69
2018-05-26T18:45:58.757Z,29.64
2018-05-26T18:48:25.025Z,29.60
2018-05-26T18:50:51.128Z,29.56
2018-05-26T18:53:17.232Z,29.52
2018-05-26T18:55:43.385Z,29.46
2018-05-26T18:58:09.489Z,29.42
2018-05-26T19:00:35.950Z,29.38
2018-05-26T19:03:02.061Z,29.30
2018-05-26T19:05:28.235Z,29.23
2018-05-26T19:07:54.706Z,29.11
2018-05-26T19:10:21.136Z,28.98
2018-05-26T19:12:47.242Z,28.89
2018-05-26T19:15:13.374Z,28.81
2018-05-26T19:17:39.720Z,28.75
2018-05-26T19:20:05.849Z,28.69
2018-05-26T19:22:31.958Z,28.63
2018-05-26T19:24:58.085Z,28.58
2018-05-26T19:27:24.183Z,28.52
2018-05-26T19:29:50.413Z,28.48
2018-05-26T19:32:16.548Z,28.43
2018-05-26T19:34:42.663Z,28.39
2018-05-26T19:37:08.794Z,28.35
2018-05-26T19:39:34.940Z,28.32
2018-05-26T19:42:01.070Z,28.28
2018-05-26T19:44:27.190Z,28.25
2018-05-26T19:46:53.536Z,28.21
2018-05-26T19:49:19.682Z,28.18
2018-05-26T19:51:45.793Z,28.15
2018-05-26T19:54:11.888Z,28.12
2018-05-26T19:56:38.026Z,28.10
2018-05-26T19:59:04.156Z,28.07
2018-05-26T20:01:30.294Z,28.04
2018-05-26T20:03:56.418Z,28.00
2018-05-26T20:06:22.549Z,27.97
2018-05-26T20:08:48.689Z,27.93
2018-05-26T20:11:15.100Z,27.89
2018-05-26T20:13:41.257Z,27.85
2018-05-26T20:16:07.379Z,27.82
2018-05-26T20:18:33.491Z,27.79
2018-05-26T20:20:59.625Z,27.76
2018-05-26T20:23:26.043Z,27.73
2018-05-26T20:25:52.209Z,27.70
2018-05-26T20:28:18.333Z,27.68
2018-05-26T20:30:44.421Z,27.65
2018-05-26T20:33:10.640Z,27.62
2018-05-26T20:35:37.077Z,27.59
2018-05-26T20:38:03.228Z,27.57
2018-05-26T20:40:29.738Z,27.53
2018-05-26T20:42:55.886Z,27.49
2018-05-26T20:45:22.020Z,27.47
2018-05-26T20:47:48.426Z,27.45
2018-05-26T20:50:14.559Z,27.42
2018-05-26T20:52:40.690Z,27.38
2018-05-26T20:55:06.795Z,27.35
2018-05-26T20:57:32.962Z,27.33
2018-05-26T20:59:59.091Z,27.30
2018-05-26T21:02:25.190Z,27.26
2018-05-26T21:04:51.337Z,27.23
2018-05-26T21:07:17.450Z,27.21
2018-05-26T21:09:43.676Z,27.18
2018-05-26T21:12:09.805Z,27.15
2018-05-26T21:14:35.926Z,27.12
2018-05-26T21:17:02.028Z,27.10
2018-05-26T21:19:28.262Z,27.09
2018-05-26T21:21:54.418Z,27.05
2018-05-26T21:24:20.521Z,27.00
2018-05-26T21:26:46.655Z,26.96
2018-05-26T21:29:12.761Z,26.95
2018-05-26T21:31:39.197Z,26.93
2018-05-26T21:34:05.302Z,26.91
2018-05-26T21:36:31.437Z,26.90
2018-05-26T21:38:57.573Z,26.88
2018-05-26T21:41:23.700Z,26.84
2018-05-26T21:43:49.946Z,26.81
2018-05-26T21:46:16.104Z,26.81
2018-05-26T21:48:42.486Z,26.79
2018-05-26T21:51:08.949Z,26.75
2018-05-26T21:53:35.149Z,26.74
2018-05-26T21:56:01.263Z,26.70
2018-05-26T21:58:27.855Z,26.67
2018-05-26T22:00:53.933Z,26.65
2018-05-26T22:03:20.470Z,26.62
2018-05-26T22:05:46.642Z,26.60
2018-05-26T22:08:13.062Z,26.59
2018-05-26T22:10:39.864Z,26.56
2018-05-26T22:13:06.302Z,26.55
2018-05-26T22:15:32.388Z,26.55
2018-05-26T22:17:58.529Z,26.56
2018-05-26T22:20:24.653Z,26.55
2018-05-26T22:22:51.157Z,26.53
2018-05-26T22:25:17.546Z,26.52
2018-05-26T22:27:43.673Z,26.51
2018-05-26T22:30:09.922Z,26.50
2018-05-26T22:32:36.033Z,26.49
2018-05-26T22:35:02.150Z,26.48
2018-05-26T22:37:28.281Z,26.46
2018-05-26T22:39:54.376Z,26.45
2018-05-26T22:42:20.532Z,26.44
2018-05-26T22:44:46.632Z,26.42
2018-05-26T22:47:12.736Z,26.41
2018-05-26T22:49:38.857Z,26.40
2018-05-26T22:52:05.029Z,26.40
2018-05-26T22:54:31.331Z,26.40
2018-05-26T22:56:57.934Z,26.38
2018-05-26T22:59:24.367Z,26.37
2018-05-26T23:01:50.461Z,26.36
2018-05-26T23:04:16.885Z,26.34
2018-05-26T23:06:42.993Z,26.34
2018-05-26T23:09:09.111Z,26.33
2018-05-26T23:11:35.247Z,26.32
2018-05-26T23:14:01.394Z,26.32
2018-05-26T23:16:27.820Z,26.30
2018-05-26T23:18:53.949Z,26.27
2018-05-26T23:21:20.085Z,26.24
2018-05-26T23:23:46.504Z,26.23
2018-05-26T23:26:12.633Z,26.21
2018-05-26T23:28:38.754Z,26.18
2018-05-26T23:31:04.886Z,26.17
2018-05-26T23:33:31.214Z,26.17
2018-05-26T23:35:57.651Z,26.17
2018-05-26T23:38:24.389Z,26.16
2018-05-26T23:40:50.821Z,26.15
2018-05-26T23:43:16.948Z,26.12
2018-05-26T23:45:43.104Z,26.12
2018-05-26T23:48:09.233Z,26.10
2018-05-26T23:50:35.356Z,26.08
2018-05-26T23:53:01.457Z,26.08
2018-05-26T23:55:28.012Z,26.07
2018-05-26T23:57:54.116Z,26.07
